Time;durP1;ratioP1;P1;durP2;ratioP2;P2;SDS_P1;SDS_P2;PMS_P1;PMS_P2;Temp;Humidity;BMP_temperature;BMP_pressure;BME280_temperature;BME280_humidity;BME280_pressure;Samples;Min_cycle;Max_cycle;Signal;HPM_P1;HPM_P2
2022/07/17 00:01:00;;;;;;;3.17;2.70;;;;;;;;;;6149513;23;20166;-90
2022/07/17 00:03:42;;;;;;;;;;;;;;;;;;;;;
2022/07/17 00:09:14;;;;;;;2.80;2.60;;;;;;;;;;6148902;23;20167;-90
2022/07/17 00:12:11;;;;;;;;;;;;;;;;;;;;;
2022/07/17 00:14:48;;;;;;;2.55;2.28;;;;;;;;;;6190289;22;20188;-91
2022/07/17 00:17:16;;;;;;;3.20;2.90;;;;;;;;;;6264516;22;20228;-92
2022/07/17 00:19:52;;;;;;;2.67;2.40;;;;;;;;;;6263094;23;20233;-91
2022/07/17 00:22:35;;;;;;;2.70;2.47;;;;;;;;;;6257822;23;20160;-89
2022/07/17 00:25:02;;;;;;;2.50;2.30;;;;;;;;;;6247729;22;20189;-90
2022/07/17 00:27:39;;;;;;;2.75;2.42;;;;;;;;;;6244017;23;20183;-91
2022/07/17 00:30:12;;;;;;;2.92;2.40;;;;;;;;;;6245090;23;20171;-91
2022/07/17 00:35:50;;;;;;;2.65;2.45;;;;;;;;;;6243861;22;20322;-91
2022/07/17 00:38:19;;;;;;;3.50;2.50;;;;;;;;;;6244512;23;20172;-91
2022/07/17 00:40:47;;;;;;;2.90;2.70;;;;;;;;;;6244542;23;20175;-91
2022/07/17 00:43:28;;;;;;;2.65;2.45;;;;;;;;;;6244627;23;20576;-91
2022/07/17 00:45:57;;;;;;;2.75;2.55;;;;;;;;;;6243832;22;20219;-90
2022/07/17 00:48:47;;;;;;;3.97;2.60;;;;;;;;;;6244306;23;20172;-91
2022/07/17 00:51:14;;;;;;;2.80;2.60;;;;;;;;;;6244413;23;20218;-91
2022/07/17 00:53:46;;;;;;;3.58;2.70;;;;;;;;;;6244724;23;20173;-91
2022/07/17 00:56:14;;;;;;;2.97;2.47;;;;;;;;;;6243691;22;20196;-90
2022/07/17 00:58:45;;;;;;;2.50;2.30;;;;;;;;;;6244158;23;20173;-90
2022/07/17 01:01:13;;;;;;;2.75;2.33;;;;;;;;;;6244779;23;20164;-90
2022/07/17 01:03:43;;;;;;;4.07;2.58;;;;;;;;;;6244465;23;20169;-91
2022/07/17 01:06:11;;;;;;;2.83;2.50;;;;;;;;;;6243377;22;20193;-91
2022/07/17 01:08:39;;;;;;;3.55;2.90;;;;;;;;;;6244364;23;20234;-90
2022/07/17 01:11:07;;;;;;;2.83;2.50;;;;;;;;;;6244184;23;20176;-90
2022/07/17 01:13:35;;;;;;;4.40;2.80;;;;;;;;;;6244196;23;20218;-90
2022/07/17 01:16:06;;;;;;;2.88;2.50;;;;;;;;;;6243513;22;20192;-91
2022/07/17 01:18:36;;;;;;;2.72;2.40;;;;;;;;;;6244960;23;20171;-90
2022/07/17 01:21:12;;;;;;;4.07;3.00;;;;;;;;;;6244691;23;20173;-90
2022/07/17 01:23:39;;;;;;;4.97;2.88;;;;;;;;;;6244785;23;20168;-91
2022/07/17 01:26:09;;;;;;;3.88;2.72;;;;;;;;;;6243600;22;20211;-90
2022/07/17 01:28:43;;;;;;;3.47;2.70;;;;;;;;;;6244574;23;20168;-89
2022/07/17 01:31:15;;;;;;;2.95;2.40;;;;;;;;;;6244451;23;20196;-91
2022/07/17 01:33:44;;;;;;;3.55;2.80;;;;;;;;;;6245074;23;20223;-91
2022/07/17 01:36:23;;;;;;;3.75;2.70;;;;;;;;;;6243351;22;20207;-90
2022/07/17 01:38:56;;;;;;;3.25;2.70;;;;;;;;;;6244502;23;20188;-90
2022/07/17 01:41:23;;;;;;;3.55;2.85;;;;;;;;;;6245987;23;20234;-90
2022/07/17 01:43:53;;;;;;;2.40;2.20;;;;;;;;;;6246582;23;20203;-90
2022/07/17 01:46:22;;;;;;;2.75;2.45;;;;;;;;;;6243925;22;20271;-91
2022/07/17 01:48:52;;;;;;;3.08;2.80;;;;;;;;;;6244440;23;20176;-90
2022/07/17 01:51:25;;;;;;;4.20;3.00;;;;;;;;;;6244790;23;20192;-90
2022/07/17 01:53:54;;;;;;;5.32;2.85;;;;;;;;;;6245061;23;20161;-90
2022/07/17 01:56:23;;;;;;;4.40;2.90;;;;;;;;;;6244022;22;20202;-90
2022/07/17 01:58:51;;;;;;;3.88;2.40;;;;;;;;;;6244822;23;20664;-90
2022/07/17 02:01:18;;;;;;;3.50;2.60;;;;;;;;;;6247038;23;20206;-91
2022/07/17 02:03:46;;;;;;;4.72;3.08;;;;;;;;;;6244111;23;20248;-91
2022/07/17 02:06:13;;;;;;;4.63;3.00;;;;;;;;;;6243415;22;20189;-90
2022/07/17 02:08:50;;;;;;;2.75;2.53;;;;;;;;;;6244230;23;20169;-90
2022/07/17 02:11:18;;;;;;;4.15;2.97;;;;;;;;;;6246183;23;20172;-90
2022/07/17 02:13:45;;;;;;;4.20;2.70;;;;;;;;;;6245911;23;20173;-90
2022/07/17 02:16:13;;;;;;;4.07;2.60;;;;;;;;;;6245042;22;20219;-90
2022/07/17 02:18:43;;;;;;;3.78;2.88;;;;;;;;;;6245519;23;20176;-89
2022/07/17 02:21:15;;;;;;;3.30;3.00;;;;;;;;;;6246250;23;20183;-91
2022/07/17 02:23:57;;;;;;;2.75;2.55;;;;;;;;;;6245858;23;20173;-90
2022/07/17 02:26:32;;;;;;;3.53;2.90;;;;;;;;;;6243141;22;20196;-90
2022/07/17 02:29:03;;;;;;;3.08;2.60;;;;;;;;;;6246009;23;20241;-91
2022/07/17 02:31:33;;;;;;;4.28;2.80;;;;;;;;;;6245759;23;20173;-89
2022/07/17 02:34:01;;;;;;;4.50;2.75;;;;;;;;;;6246059;23;20169;-90
2022/07/17 02:36:28;;;;;;;3.10;2.80;;;;;;;;;;6245023;22;20196;-91
2022/07/17 02:38:57;;;;;;;2.80;2.60;;;;;;;;;;6245510;23;20173;-90
2022/07/17 02:41:28;;;;;;;2.85;2.65;;;;;;;;;;6245881;23;20168;-90
2022/07/17 02:44:00;;;;;;;3.65;2.85;;;;;;;;;;6244863;23;20171;-91
2022/07/17 02:46:30;;;;;;;3.17;2.67;;;;;;;;;;6243330;22;20196;-89
2022/07/17 02:49:08;;;;;;;3.80;3.00;;;;;;;;;;6244395;23;20479;-90
2022/07/17 02:51:40;;;;;;;3.13;2.83;;;;;;;;;;6243564;23;20173;-90
2022/07/17 02:54:17;;;;;;;3.70;2.80;;;;;;;;;;6245866;23;20185;-90
2022/07/17 02:57:04;;;;;;;4.30;2.65;;;;;;;;;;6244683;22;20192;-91
2022/07/17 02:59:32;;;;;;;3.97;2.80;;;;;;;;;;6243614;23;20172;-90
2022/07/17 03:02:06;;;;;;;4.03;3.00;;;;;;;;;;6245409;23;20172;-90
2022/07/17 03:04:46;;;;;;;2.63;2.42;;;;;;;;;;6245785;22;20691;-91
2022/07/17 03:07:15;;;;;;;3.70;2.55;;;;;;;;;;6243879;23;20182;-90
2022/07/17 03:09:42;;;;;;;3.05;2.75;;;;;;;;;;6245610;23;20192;-91
2022/07/17 03:21:14;;;;;;;3.00;2.70;;;;;;;;;;6238483;23;20176;-90
2022/07/17 03:26:30;;;;;;;3.75;3.00;;;;;;;;;;6244889;22;20212;-90
2022/07/17 03:28:57;;;;;;;3.40;3.08;;;;;;;;;;6246491;23;20178;-91
2022/07/17 03:31:34;;;;;;;3.13;2.80;;;;;;;;;;6246042;23;20176;-90
2022/07/17 03:34:10;;;;;;;3.03;2.78;;;;;;;;;;6245603;23;20226;-91
2022/07/17 03:36:37;;;;;;;3.72;2.75;;;;;;;;;;6248791;22;20192;-92
2022/07/17 03:39:04;;;;;;;4.22;2.72;;;;;;;;;;6249227;23;20180;-92
2022/07/17 03:41:32;;;;;;;3.45;3.00;;;;;;;;;;6246199;23;20252;-92
2022/07/17 03:43:59;;;;;;;2.70;2.50;;;;;;;;;;6245528;23;20173;-92
2022/07/17 03:46:27;;;;;;;2.85;2.65;;;;;;;;;;6245574;22;20212;-91
2022/07/17 03:49:06;;;;;;;4.68;2.85;;;;;;;;;;6246429;23;20169;-92
2022/07/17 03:51:37;;;;;;;3.38;3.08;;;;;;;;;;6246434;23;20254;-92
2022/07/17 03:54:04;;;;;;;2.92;2.63;;;;;;;;;;6246354;23;20164;-92
2022/07/17 03:56:32;;;;;;;3.50;2.65;;;;;;;;;;6245876;22;20228;-92
2022/07/17 03:58:59;;;;;;;3.10;2.72;;;;;;;;;;6246679;23;20172;-92
2022/07/17 04:10:22;;;;;;;3.10;2.80;;;;;;;;;;6239081;23;20174;-93
2022/07/17 04:12:50;;;;;;;3.05;2.33;;;;;;;;;;6253260;23;20172;-93
2022/07/17 04:15:49;;;;;;;3.58;2.65;;;;;;;;;;6254688;22;20207;-92
2022/07/17 04:18:06;;;;;;;2.65;2.45;;;;;;;;;;6257683;23;20172;-92
2022/07/17 04:20:33;;;;;;;3.20;2.90;;;;;;;;;;6257869;23;20207;-92
2022/07/17 04:23:02;;;;;;;3.15;2.88;;;;;;;;;;6259540;23;20199;-92
2022/07/17 04:25:30;;;;;;;2.75;2.55;;;;;;;;;;6252393;22;20223;-92
2022/07/17 04:27:59;;;;;;;2.50;2.30;;;;;;;;;;6252512;23;20222;-92
2022/07/17 04:30:27;;;;;;;2.88;2.45;;;;;;;;;;6255173;23;20252;-91
2022/07/17 04:32:56;;;;;;;2.95;2.75;;;;;;;;;;6253770;23;20172;-92
2022/07/17 04:35:24;;;;;;;2.63;2.42;;;;;;;;;;6248985;22;20196;-93
2022/07/17 04:37:51;;;;;;;2.83;2.58;;;;;;;;;;6250194;23;20219;-92
2022/07/17 04:40:20;;;;;;;2.55;2.30;;;;;;;;;;6247464;23;20172;-92
2022/07/17 04:42:48;;;;;;;3.00;2.70;;;;;;;;;;6247871;23;20175;-92
2022/07/17 04:45:15;;;;;;;2.97;2.78;;;;;;;;;;6249665;22;20192;-92
2022/07/17 04:47:43;;;;;;;3.42;2.55;;;;;;;;;;6246246;23;20173;-92
2022/07/17 04:50:11;;;;;;;2.97;2.67;;;;;;;;;;6246913;23;20172;-92
2022/07/17 04:52:41;;;;;;;3.10;2.80;;;;;;;;;;6250411;23;20176;-92
2022/07/17 04:55:09;;;;;;;2.83;2.63;;;;;;;;;;6249243;22;20254;-91
2022/07/17 05:00:28;;;;;;;3.47;2.70;;;;;;;;;;6246511;23;20168;-92
2022/07/17 05:02:56;;;;;;;2.80;2.60;;;;;;;;;;6250183;23;20172;-93
2022/07/17 05:05:24;;;;;;;3.00;2.63;;;;;;;;;;6244860;22;20255;-92
2022/07/17 05:07:53;;;;;;;3.35;2.63;;;;;;;;;;6244247;23;20173;-93
2022/07/17 05:10:31;;;;;;;2.78;2.58;;;;;;;;;;6245929;23;20175;-92
2022/07/17 05:13:03;;;;;;;2.80;2.58;;;;;;;;;;6246711;23;20165;-92
2022/07/17 05:15:30;;;;;;;2.72;2.47;;;;;;;;;;6247414;22;20192;-91
2022/07/17 05:17:59;;;;;;;2.90;2.70;;;;;;;;;;6245668;23;20179;-93
2022/07/17 05:20:39;;;;;;;3.53;2.70;;;;;;;;;;6246481;23;20176;-91
2022/07/17 05:23:08;;;;;;;2.83;2.47;;;;;;;;;;6245790;23;20168;-90
2022/07/17 05:25:47;;;;;;;3.35;2.78;;;;;;;;;;6245420;22;20189;-91
2022/07/17 05:28:20;;;;;;;2.63;2.40;;;;;;;;;;6247367;23;20168;-91
2022/07/17 05:30:48;;;;;;;2.70;2.50;;;;;;;;;;6247438;23;20169;-90
2022/07/17 05:33:15;;;;;;;3.00;2.70;;;;;;;;;;6245597;23;20180;-90
2022/07/17 05:35:42;;;;;;;4.10;2.50;;;;;;;;;;6245590;22;20196;-90
2022/07/17 05:40:57;;;;;;;2.78;2.58;;;;;;;;;;6242621;23;20220;-91
2022/07/17 05:43:33;;;;;;;3.00;2.78;;;;;;;;;;6247295;23;20165;-90
2022/07/17 05:46:00;;;;;;;2.53;2.33;;;;;;;;;;6247993;22;20184;-90
2022/07/17 05:48:28;;;;;;;3.80;2.85;;;;;;;;;;6247238;23;20198;-90
2022/07/17 05:50:57;;;;;;;2.70;2.50;;;;;;;;;;6247950;23;20176;-90
2022/07/17 05:53:26;;;;;;;3.00;2.63;;;;;;;;;;6246374;23;20169;-91
2022/07/17 05:56:32;;;;;;;;;;;;;;;;;;;;;
2022/07/17 05:59:12;;;;;;;2.60;2.40;;;;;;;;;;6248153;23;20161;-90
2022/07/17 06:01:42;;;;;;;3.20;2.45;;;;;;;;;;6251542;23;20171;-90
2022/07/17 06:04:10;;;;;;;3.05;2.40;;;;;;;;;;6252474;23;20229;-91
2022/07/17 06:06:37;;;;;;;2.88;2.40;;;;;;;;;;6252339;22;20212;-89
2022/07/17 06:09:07;;;;;;;2.50;2.30;;;;;;;;;;6250318;23;20179;-90
2022/07/17 06:11:40;;;;;;;2.70;2.50;;;;;;;;;;6252863;23;20195;-91
2022/07/17 06:14:07;;;;;;;4.10;2.63;;;;;;;;;;6251855;23;20192;-91
2022/07/17 06:16:36;;;;;;;3.40;2.38;;;;;;;;;;6249792;22;20193;-91
2022/07/17 06:19:04;;;;;;;2.78;2.58;;;;;;;;;;6252244;23;20175;-90
2022/07/17 06:21:37;;;;;;;2.60;2.40;;;;;;;;;;6249898;23;20183;-91
2022/07/17 06:24:05;;;;;;;2.72;2.45;;;;;;;;;;6247781;23;20175;-90
2022/07/17 06:26:39;;;;;;;3.45;2.50;;;;;;;;;;6246604;22;20188;-91
2022/07/17 06:29:10;;;;;;;2.70;2.50;;;;;;;;;;6247799;23;20199;-91
2022/07/17 06:31:58;;;;;;;2.85;2.65;;;;;;;;;;6249833;23;20165;-92
2022/07/17 06:34:40;;;;;;;2.85;2.63;;;;;;;;;;6250104;23;20173;-90
2022/07/17 06:37:09;;;;;;;2.60;2.40;;;;;;;;;;6246636;23;20193;-90
2022/07/17 06:42:46;;;;;;;3.13;2.83;;;;;;;;;;6245998;23;20172;-91
2022/07/17 06:48:06;;;;;;;7.40;3.20;;;;;;;;;;6241092;23;20239;-90
2022/07/17 06:53:21;;;;;;;7.85;3.22;;;;;;;;;;6248187;23;20200;-90
2022/07/17 06:58:18;;;;;;;8.93;3.50;;;;;;;;;;6337113;22;20170;-93
2022/07/17 07:00:47;;;;;;;7.57;3.20;;;;;;;;;;6340427;22;20166;-91
2022/07/17 07:03:15;;;;;;;5.63;3.28;;;;;;;;;;6337660;22;20170;-91
2022/07/17 07:05:45;;;;;;;5.07;2.85;;;;;;;;;;6323380;22;20191;-90
2022/07/17 07:08:12;;;;;;;6.20;2.70;;;;;;;;;;6307082;22;20177;-92
2022/07/17 07:10:44;;;;;;;6.72;3.13;;;;;;;;;;6307406;22;20171;-91
2022/07/17 07:13:12;;;;;;;5.30;3.00;;;;;;;;;;6307517;22;20178;-92
2022/07/17 07:15:42;;;;;;;6.35;2.92;;;;;;;;;;6305811;22;20193;-91
2022/07/17 07:18:10;;;;;;;9.05;3.10;;;;;;;;;;6307112;22;20167;-91
2022/07/17 07:20:42;;;;;;;4.95;2.75;;;;;;;;;;6307038;22;20172;-91
2022/07/17 07:23:09;;;;;;;4.45;2.90;;;;;;;;;;6307002;22;20163;-90
2022/07/17 07:25:37;;;;;;;5.25;2.75;;;;;;;;;;6305922;22;20195;-91
2022/07/17 07:28:09;;;;;;;4.68;2.97;;;;;;;;;;6306684;22;20570;-90
2022/07/17 07:30:37;;;;;;;5.05;2.83;;;;;;;;;;6306505;22;20160;-91
2022/07/17 07:33:06;;;;;;;5.25;2.88;;;;;;;;;;6306790;22;20174;-89
2022/07/17 07:35:35;;;;;;;6.00;2.75;;;;;;;;;;6306635;22;20194;-91
2022/07/17 07:38:03;;;;;;;4.20;2.67;;;;;;;;;;6306212;22;20195;-91
2022/07/17 07:40:30;;;;;;;5.95;2.90;;;;;;;;;;6306567;22;20175;-90
2022/07/17 07:42:58;;;;;;;4.68;2.50;;;;;;;;;;6306431;22;20175;-90
2022/07/17 07:45:27;;;;;;;4.30;2.90;;;;;;;;;;6306596;22;20191;-91
2022/07/17 07:47:57;;;;;;;4.75;2.65;;;;;;;;;;6305724;22;20221;-91
2022/07/17 07:50:25;;;;;;;6.53;2.70;;;;;;;;;;6306280;22;20171;-91
2022/07/17 07:52:53;;;;;;;3.33;2.50;;;;;;;;;;6306404;22;20176;-90
2022/07/17 07:55:21;;;;;;;3.72;2.58;;;;;;;;;;6306394;22;20192;-92
2022/07/17 07:57:55;;;;;;;2.50;2.30;;;;;;;;;;6306050;22;20186;-90
2022/07/17 08:00:24;;;;;;;4.60;2.67;;;;;;;;;;6306956;22;20380;-89
2022/07/17 08:02:59;;;;;;;4.45;2.38;;;;;;;;;;6306765;22;20178;-91
2022/07/17 08:05:29;;;;;;;5.25;2.38;;;;;;;;;;6305998;22;20191;-91
2022/07/17 08:07:58;;;;;;;3.67;2.67;;;;;;;;;;6305428;22;20173;-91
2022/07/17 08:10:26;;;;;;;3.75;2.50;;;;;;;;;;6306547;22;20171;-90
2022/07/17 08:12:54;;;;;;;5.60;2.53;;;;;;;;;;6306295;22;20193;-92
2022/07/17 08:15:22;;;;;;;3.42;2.50;;;;;;;;;;6306400;22;20191;-91
2022/07/17 08:17:54;;;;;;;3.10;2.30;;;;;;;;;;6305832;22;20267;-90
2022/07/17 08:20:27;;;;;;;2.40;2.20;;;;;;;;;;6306802;22;20171;-90
2022/07/17 08:22:54;;;;;;;4.47;2.33;;;;;;;;;;6306311;22;20163;-89
2022/07/17 08:25:22;;;;;;;2.40;2.20;;;;;;;;;;6306229;22;20190;-92
2022/07/17 08:27:49;;;;;;;2.42;2.22;;;;;;;;;;6305703;22;20167;-91
2022/07/17 08:30:17;;;;;;;2.17;1.98;;;;;;;;;;6306495;22;20171;-91
2022/07/17 08:32:44;;;;;;;3.38;2.50;;;;;;;;;;6306385;22;20176;-91
2022/07/17 08:35:14;;;;;;;3.15;2.50;;;;;;;;;;6306202;22;20188;-91
2022/07/17 08:37:56;;;;;;;2.40;2.20;;;;;;;;;;6305238;22;20183;-91
2022/07/17 08:40:25;;;;;;;3.28;2.42;;;;;;;;;;6306660;22;20167;-91
2022/07/17 08:42:55;;;;;;;2.67;2.47;;;;;;;;;;6305769;22;20171;-91
2022/07/17 08:45:23;;;;;;;2.85;2.10;;;;;;;;;;6306449;22;20191;-90
2022/07/17 08:48:23;;;;;;;2.58;2.10;;;;;;;;;;6305687;22;20186;-91
2022/07/17 08:50:55;;;;;;;2.65;2.40;;;;;;;;;;6181881;23;20209;-91
2022/07/17 09:07:48;;;;;;;3.17;2.13;;;;;;;;;;6201464;23;20169;-90
2022/07/17 09:46:39;;;;;;;1.85;1.75;;;;;;;;;;6245701;22;20195;-90
2022/07/17 10:00:12;;;;;;;1.98;1.80;;;;;;;;;;6337568;22;20228;-90
2022/07/17 10:17:37;;;;;;;2.03;1.77;;;;;;;;;;6235738;22;20234;-89
2022/07/17 10:20:40;;;;;;;2.05;1.80;;;;;;;;;;6245209;23;20173;-89
2022/07/17 10:32:44;;;;;;;1.80;1.70;;;;;;;;;;6150847;23;20175;-89
2022/07/17 11:41:20;;;;;;;2.60;1.80;;;;;;;;;;6245306;22;20269;-87
2022/07/17 11:43:48;;;;;;;1.75;1.65;;;;;;;;;;6244948;23;20264;-88
2022/07/17 11:46:17;;;;;;;1.90;1.75;;;;;;;;;;6245009;22;20203;-89
2022/07/17 11:49:27;;;;;;;2.00;1.80;;;;;;;;;;6245889;23;20173;-90
2022/07/17 11:51:57;;;;;;;1.67;1.58;;;;;;;;;;6245518;23;20172;-88
2022/07/17 11:55:02;;;;;;;;;;;;;;;;;;;;;
2022/07/17 11:57:48;;;;;;;1.98;1.88;;;;;;;;;;6244763;23;20195;-90
2022/07/17 12:09:49;;;;;;;2.25;1.70;;;;;;;;;;6149724;23;20166;-88
2022/07/17 12:15:51;;;;;;;1.83;1.73;;;;;;;;;;6102057;23;20198;-89
2022/07/17 12:18:25;;;;;;;1.67;1.58;;;;;;;;;;6148436;23;20199;-86
2022/07/17 13:15:48;;;;;;;5.57;2.58;;;;;;;;;;6244834;22;20237;-87
2022/07/17 13:18:26;;;;;;;6.15;2.50;;;;;;;;;;6150740;23;20361;-89
2022/07/17 13:33:37;;;;;;;;;;;;;;;;;;;;;
2022/07/17 14:00:00;;;;;;;2.50;2.22;;;;;;;;;;6252634;22;20198;-88
2022/07/17 14:16:40;;;;;;;2.10;1.90;;;;;;;;;;6253728;22;20199;-91
2022/07/17 14:19:51;;;;;;;2.13;1.90;;;;;;;;;;6242904;23;20250;-90
2022/07/17 14:44:00;;;;;;;1.90;1.80;;;;;;;;;;6226561;23;20160;-91
2022/07/17 14:49:49;;;;;;;1.85;1.75;;;;;;;;;;6212195;23;20165;-92
2022/07/17 15:28:47;;;;;;;1.80;1.70;;;;;;;;;;6118394;23;20166;-94
2022/07/17 18:10:02;;;;;;;1.63;1.52;;;;;;;;;;6344179;22;20170;-93
2022/07/17 18:12:30;;;;;;;2.20;2.00;;;;;;;;;;6347212;22;20197;-92
2022/07/17 18:14:58;;;;;;;2.88;2.10;;;;;;;;;;6346452;22;20209;-92
2022/07/17 18:17:26;;;;;;;2.30;2.10;;;;;;;;;;6341504;22;20191;-93
2022/07/17 18:19:54;;;;;;;2.28;2.08;;;;;;;;;;6341980;22;20173;-92
2022/07/17 18:22:22;;;;;;;2.03;1.90;;;;;;;;;;6344842;22;20186;-92
2022/07/17 18:24:50;;;;;;;1.92;1.80;;;;;;;;;;6339595;22;20179;-91
2022/07/17 18:27:18;;;;;;;1.65;1.55;;;;;;;;;;6338390;22;20186;-92
2022/07/17 18:32:40;;;;;;;2.88;1.70;;;;;;;;;;6245965;23;20218;-92
2022/07/17 18:35:32;;;;;;;1.70;1.60;;;;;;;;;;6322653;22;20175;-91
2022/07/17 18:38:27;;;;;;;3.25;1.70;;;;;;;;;;6307305;22;20209;-91
2022/07/17 18:44:09;;;;;;;1.83;1.50;;;;;;;;;;6210738;23;20232;-92
2022/07/17 20:08:04;;;;;;;2.53;1.73;;;;;;;;;;6248317;22;20259;-89
2022/07/17 20:14:12;;;;;;;3.22;1.95;;;;;;;;;;6118322;23;20174;-89
2022/07/17 20:17:06;;;;;;;2.10;1.70;;;;;;;;;;6147830;23;20218;-89
2022/07/17 20:22:29;;;;;;;1.90;1.80;;;;;;;;;;6149217;23;20179;-88
2022/07/17 20:25:25;;;;;;;1.92;1.70;;;;;;;;;;6179752;23;20180;-90
2022/07/17 20:28:09;;;;;;;;;;;;;;;;;;;;;
2022/07/17 20:36:39;;;;;;;3.25;1.67;;;;;;;;;;6213098;23;20227;-88
2022/07/17 20:39:24;;;;;;;4.80;2.25;;;;;;;;;;6213857;23;20193;-89
2022/07/17 20:42:06;;;;;;;4.20;1.90;;;;;;;;;;6214247;23;20168;-88
2022/07/17 20:44:33;;;;;;;3.53;1.95;;;;;;;;;;6214309;23;20176;-89
2022/07/17 20:47:05;;;;;;;4.00;2.08;;;;;;;;;;6213113;23;20193;-89
2022/07/17 20:49:39;;;;;;;3.60;2.10;;;;;;;;;;6213787;23;20200;-88
2022/07/17 20:58:05;;;;;;;2.40;2.00;;;;;;;;;;6150133;23;20194;-88
2022/07/17 21:00:40;;;;;;;2.88;1.92;;;;;;;;;;6212652;23;20169;-89
2022/07/17 21:03:49;;;;;;;3.50;1.90;;;;;;;;;;6213653;23;20243;-90
2022/07/17 21:06:23;;;;;;;2.85;2.00;;;;;;;;;;6212077;23;20630;-88
2022/07/17 21:08:51;;;;;;;2.85;1.80;;;;;;;;;;6227630;23;20178;-88
2022/07/17 21:11:24;;;;;;;1.95;1.60;;;;;;;;;;6244194;23;20203;-88
2022/07/17 21:14:02;;;;;;;2.67;1.80;;;;;;;;;;6243523;23;20168;-88
2022/07/17 21:16:36;;;;;;;3.35;2.08;;;;;;;;;;6244904;23;20275;-89
2022/07/17 21:19:05;;;;;;;3.80;1.92;;;;;;;;;;6246463;23;20185;-88
2022/07/17 21:21:34;;;;;;;2.53;2.33;;;;;;;;;;6246045;23;20719;-88
2022/07/17 21:24:04;;;;;;;2.80;1.92;;;;;;;;;;6246638;23;20169;-89
2022/07/17 21:26:34;;;;;;;2.05;1.80;;;;;;;;;;6245483;23;20669;-88
2022/07/17 21:29:06;;;;;;;2.42;2.05;;;;;;;;;;6246305;23;20294;-89
2022/07/17 21:31:34;;;;;;;2.45;2.10;;;;;;;;;;6246404;23;20218;-88
2022/07/17 21:34:04;;;;;;;2.25;1.88;;;;;;;;;;6246121;23;20172;-87
2022/07/17 21:39:11;;;;;;;2.67;1.67;;;;;;;;;;6247461;23;20683;-88
2022/07/17 21:41:47;;;;;;;3.13;1.98;;;;;;;;;;6247298;23;20647;-89
2022/07/17 21:44:22;;;;;;;1.80;1.60;;;;;;;;;;6247650;23;20207;-90
2022/07/17 21:46:50;;;;;;;2.25;1.90;;;;;;;;;;6245901;22;20188;-90
2022/07/17 21:49:25;;;;;;;1.83;1.73;;;;;;;;;;6247239;23;20169;-89
2022/07/17 21:51:56;;;;;;;2.58;1.98;;;;;;;;;;6246911;23;20168;-90
2022/07/17 21:54:28;;;;;;;2.95;2.00;;;;;;;;;;6247012;23;20172;-90
2022/07/17 21:57:05;;;;;;;1.60;1.50;;;;;;;;;;6245673;22;20239;-91
2022/07/17 21:59:51;;;;;;;3.00;2.10;;;;;;;;;;6246468;23;20211;-91
2022/07/17 22:05:30;;;;;;;1.85;1.70;;;;;;;;;;6226631;23;20176;-90
2022/07/17 22:16:03;;;;;;;1.98;1.88;;;;;;;;;;6272482;22;20203;-90
2022/07/17 22:18:37;;;;;;;2.17;1.80;;;;;;;;;;6246419;23;20173;-91
2022/07/17 22:21:19;;;;;;;2.38;1.85;;;;;;;;;;6246258;23;20171;-91
2022/07/17 22:26:41;;;;;;;1.88;1.77;;;;;;;;;;6242172;23;20203;-91
2022/07/17 22:29:29;;;;;;;2.35;2.00;;;;;;;;;;6245888;23;20193;-92
2022/07/17 22:32:10;;;;;;;1.80;1.70;;;;;;;;;;6246291;23;20176;-91
2022/07/17 22:37:33;;;;;;;2.22;2.03;;;;;;;;;;6240054;23;20204;-92
2022/07/17 22:40:03;;;;;;;2.63;1.90;;;;;;;;;;6246195;23;20195;-91
2022/07/17 22:42:48;;;;;;;2.00;1.90;;;;;;;;;;6246369;23;20172;-91
2022/07/17 22:45:30;;;;;;;1.80;1.70;;;;;;;;;;6246957;23;20172;-91
2022/07/17 22:48:03;;;;;;;2.00;1.90;;;;;;;;;;6245895;23;20192;-91
2022/07/17 22:50:54;;;;;;;1.80;1.70;;;;;;;;;;6246187;23;20515;-91
2022/07/17 22:53:27;;;;;;;2.35;1.90;;;;;;;;;;6246406;23;20161;-91
2022/07/17 22:56:14;;;;;;;1.70;1.60;;;;;;;;;;6245549;23;20172;-91
2022/07/17 22:59:11;;;;;;;2.13;1.88;;;;;;;;;;6245869;23;20172;-92
2022/07/17 23:01:38;;;;;;;2.15;1.95;;;;;;;;;;6246087;23;20188;-92
2022/07/17 23:21:30;;;;;;;;;;;;;;;;;;;;;
2022/07/17 23:27:45;;;;;;;1.95;1.83;;;;;;;;;;6299199;22;20191;-91
2022/07/17 23:30:22;;;;;;;1.60;1.50;;;;;;;;;;6245534;22;20174;-90
2022/07/17 23:39:00;;;;;;;1.85;1.75;;;;;;;;;;6295857;22;20190;-91
2022/07/17 23:41:32;;;;;;;2.83;1.98;;;;;;;;;;6307817;22;20159;-91
2022/07/17 23:44:19;;;;;;;2.00;1.80;;;;;;;;;;6231341;22;20171;-89
